createdAt,value
2018-09-17T00:01:40.390Z,97750.27
2018-09-17T00:04:08.979Z,97753.63
2018-09-17T00:06:37.793Z,97745.93
2018-09-17T00:09:09.126Z,97748.56
2018-09-17T00:11:38.182Z,97731.36
2018-09-17T00:14:06.748Z,97739.31
2018-09-17T00:16:35.919Z,97736.86
2018-09-17T00:19:04.600Z,97733.92
2018-09-17T00:21:33.696Z,97736.41
2018-09-17T00:24:02.291Z,97734.58
2018-09-17T00:26:30.996Z,97739.08
2018-09-17T00:28:59.556Z,97734.80
2018-09-17T00:31:28.090Z,97736.03
2018-09-17T00:33:56.686Z,97733.47
2018-09-17T00:36:25.240Z,97730.91
2018-09-17T00:38:53.795Z,97729.06
2018-09-17T00:41:22.449Z,97728.75
2018-09-17T00:43:50.991Z,97721.34
2018-09-17T00:46:19.544Z,97722.05
2018-09-17T00:48:48.520Z,97725.13
2018-09-17T00:51:17.851Z,97718.27
2018-09-17T00:53:46.403Z,97724.66
2018-09-17T00:56:14.989Z,97718.59
2018-09-17T00:58:43.550Z,97718.09
2018-09-17T01:01:12.095Z,97724.09
2018-09-17T01:03:40.679Z,97717.58
2018-09-17T01:06:09.264Z,97724.42
2018-09-17T01:08:37.820Z,97724.58
2018-09-17T01:11:06.411Z,97714.39
2018-09-17T01:13:34.967Z,97727.01
2018-09-17T01:16:03.532Z,97725.22
2018-09-17T01:18:32.215Z,97729.22
2018-09-17T01:21:00.772Z,97723.81
2018-09-17T01:23:29.334Z,97718.80
2018-09-17T01:25:57.935Z,97723.81
2018-09-17T01:28:26.761Z,97720.43
2018-09-17T01:30:55.316Z,97721.89
2018-09-17T01:33:24.143Z,97720.78
2018-09-17T01:35:52.687Z,97721.73
2018-09-17T01:38:21.291Z,97715.89
2018-09-17T01:40:49.915Z,97718.31
2018-09-17T01:43:19.159Z,97718.76
2018-09-17T01:45:47.714Z,97718.20
2018-09-17T01:48:16.327Z,97710.50
2018-09-17T01:50:44.880Z,97712.29
2018-09-17T01:53:13.435Z,97719.59
2018-09-17T01:55:42.117Z,97714.20
2018-09-17T01:58:10.667Z,97713.81
2018-09-17T02:00:39.239Z,97715.16
2018-09-17T02:03:08.191Z,97709.25
2018-09-17T02:05:36.822Z,97713.58
2018-09-17T02:08:06.268Z,97715.30
2018-09-17T02:10:34.787Z,97712.69
2018-09-17T02:13:03.351Z,97715.25
2018-09-17T02:15:31.901Z,97717.51
2018-09-17T02:18:00.563Z,97714.03
2018-09-17T02:20:29.122Z,97720.89
2018-09-17T02:22:57.679Z,97726.06
2018-09-17T02:25:26.259Z,97726.98
2018-09-17T02:27:54.852Z,97722.83
2018-09-17T02:30:23.399Z,97729.30
2018-09-17T02:32:52.076Z,97722.98
2018-09-17T02:35:20.640Z,97729.60
2018-09-17T02:37:49.191Z,97730.63
2018-09-17T02:40:18.660Z,97729.30
2018-09-17T02:42:49.339Z,97724.09
2018-09-17T02:45:18.568Z,97727.77
2018-09-17T02:47:47.170Z,97729.84
2018-09-17T02:50:15.734Z,97728.62
2018-09-17T02:52:44.348Z,97724.92
2018-09-17T02:55:12.907Z,97729.68
2018-09-17T02:57:41.469Z,97722.75
2018-09-17T03:00:10.995Z,97728.91
2018-09-17T03:02:39.915Z,97728.55
2018-09-17T03:05:09.219Z,97728.91
2018-09-17T03:07:37.812Z,97728.84
2018-09-17T03:10:06.495Z,97725.62
2018-09-17T03:12:35.048Z,97735.69
2018-09-17T03:15:14.788Z,97737.95
2018-09-17T03:17:43.364Z,97734.27
2018-09-17T03:20:11.916Z,97741.64
2018-09-17T03:22:40.587Z,97747.88
2018-09-17T03:25:09.135Z,97747.64
2018-09-17T03:27:37.693Z,97743.88
2018-09-17T03:30:06.461Z,97746.13
2018-09-17T03:32:35.024Z,97741.86
2018-09-17T03:35:03.579Z,97745.30
2018-09-17T03:37:32.243Z,97753.49
2018-09-17T03:40:01.434Z,97756.05
2018-09-17T03:42:30.407Z,97757.70
2018-09-17T03:44:59.640Z,97760.31
2018-09-17T03:47:28.218Z,97761.54
2018-09-17T03:49:56.801Z,97766.17
2018-09-17T03:52:25.504Z,97766.94
2018-09-17T03:54:54.051Z,97764.89
2018-09-17T03:57:22.595Z,97777.06
2018-09-17T03:59:51.175Z,97776.23
2018-09-17T04:02:19.722Z,97782.61
2018-09-17T04:04:48.284Z,97783.83
2018-09-17T04:07:16.898Z,97786.77
2018-09-17T04:09:45.964Z,97784.07
2018-09-17T04:12:15.643Z,97781.67
2018-09-17T04:14:44.573Z,97785.85
2018-09-17T04:17:13.167Z,97793.99
2018-09-17T04:19:41.711Z,97793.84
2018-09-17T04:22:10.948Z,97780.54
2018-09-17T04:24:39.505Z,97783.63
2018-09-17T04:27:08.059Z,97784.13
2018-09-17T04:29:36.659Z,97778.67
2018-09-17T04:32:05.215Z,97779.56
2018-09-17T04:34:33.773Z,97780.54
2018-09-17T04:37:02.399Z,97784.38
2018-09-17T04:39:31.013Z,97786.23
2018-09-17T04:41:59.554Z,97787.28
2018-09-17T04:44:28.219Z,97785.17
2018-09-17T04:46:56.807Z,97794.94
2018-09-17T04:49:25.359Z,97788.64
2018-09-17T04:51:54.048Z,97790.89
2018-09-17T04:54:22.599Z,97795.23
2018-09-17T04:56:51.173Z,97789.91
2018-09-17T04:59:19.847Z,97794.23
2018-09-17T05:01:48.408Z,97792.06
2018-09-17T05:04:16.963Z,97795.06
2018-09-17T05:06:46.260Z,97788.82
2018-09-17T05:09:14.815Z,97787.55
2018-09-17T05:11:43.363Z,97794.45
2018-09-17T05:14:11.979Z,97796.63
2018-09-17T05:16:40.531Z,97800.45
2018-09-17T05:19:09.090Z,97802.64
2018-09-17T05:21:37.751Z,97799.45
2018-09-17T05:24:06.455Z,97799.24
2018-09-17T05:26:35.007Z,97794.03
2018-09-17T05:29:03.609Z,97798.30
2018-09-17T05:31:32.626Z,97799.05
2018-09-17T05:34:01.199Z,97798.99
2018-09-17T05:36:29.852Z,97801.31
2018-09-17T05:38:58.403Z,97800.29
2018-09-17T05:41:26.956Z,97802.64
2018-09-17T05:43:55.713Z,97799.72
2018-09-17T05:46:24.260Z,97804.41
2018-09-17T05:48:52.817Z,97797.88
2018-09-17T05:51:21.471Z,97800.81
2018-09-17T05:53:50.031Z,97800.95
2018-09-17T05:56:18.601Z,97795.71
2018-09-17T05:58:47.320Z,97797.65
2018-09-17T06:01:15.887Z,97801.30
2018-09-17T06:03:44.447Z,97801.48
2018-09-17T06:06:13.339Z,97802.19
2018-09-17T06:08:41.896Z,97806.02
2018-09-17T06:11:11.095Z,97797.97
2018-09-17T06:13:40.055Z,97796.27
2018-09-17T06:16:08.692Z,97805.55
2018-09-17T06:18:37.258Z,97803.70
2018-09-17T06:21:06.384Z,97792.57
2018-09-17T06:23:34.976Z,97795.55
2018-09-17T06:26:03.535Z,97805.13
2018-09-17T06:28:32.894Z,97808.69
2018-09-17T06:31:01.428Z,97806.39
2018-09-17T06:33:29.998Z,97808.68
2018-09-17T06:35:58.670Z,97806.56
2018-09-17T06:38:27.233Z,97812.44
2018-09-17T06:40:55.791Z,97815.54
2018-09-17T06:43:24.401Z,97820.13
2018-09-17T06:45:52.964Z,97817.38
2018-09-17T06:48:21.522Z,97817.72
2018-09-17T06:50:50.487Z,97811.28
2018-09-17T06:53:19.049Z,97815.23
2018-09-17T06:55:47.595Z,97809.45
2018-09-17T06:58:16.543Z,97811.22
2018-09-17T07:00:45.100Z,97809.25
2018-09-17T07:03:13.660Z,97806.02
2018-09-17T07:05:42.315Z,97811.30
2018-09-17T07:08:10.879Z,97817.15
2018-09-17T07:10:39.420Z,97822.03
2018-09-17T07:13:08.031Z,97819.12
2018-09-17T07:15:36.587Z,97824.39
2018-09-17T07:18:05.188Z,97821.63
2018-09-17T07:20:33.752Z,97820.98
2018-09-17T07:23:02.301Z,97821.58
2018-09-17T07:25:30.838Z,97818.97
2018-09-17T07:27:59.552Z,97824.03
2018-09-17T07:30:28.124Z,97828.48
2018-09-17T07:32:56.675Z,97825.08
2018-09-17T07:35:25.352Z,97825.03
2018-09-17T07:37:53.920Z,97823.51
2018-09-17T07:40:23.194Z,97815.98
2018-09-17T07:42:51.789Z,97808.88
2018-09-17T07:45:20.349Z,97814.16
2018-09-17T07:47:48.975Z,97820.90
2018-09-17T07:50:17.946Z,97814.67
2018-09-17T07:52:46.509Z,97821.14
2018-09-17T07:55:15.084Z,97823.31
2018-09-17T07:57:43.711Z,97822.22
2018-09-17T08:00:12.254Z,97821.42
2018-09-17T08:02:40.819Z,97821.77
2018-09-17T08:05:09.489Z,97822.09
2018-09-17T08:07:38.062Z,97821.63
2018-09-17T08:10:06.667Z,97816.47
2018-09-17T08:12:35.251Z,97819.65
2018-09-17T08:15:03.887Z,97810.05
2018-09-17T08:17:32.439Z,97809.03
2018-09-17T08:20:01.050Z,97805.95
2018-09-17T08:22:29.591Z,97810.20
2018-09-17T08:24:58.143Z,97815.27
2018-09-17T08:27:26.796Z,97816.92
2018-09-17T08:29:55.331Z,97807.92
2018-09-17T08:32:23.884Z,97818.00
2018-09-17T08:34:52.686Z,97820.40
2018-09-17T08:37:21.227Z,97811.88
2018-09-17T08:39:49.767Z,97811.39
2018-09-17T08:42:18.411Z,97812.90
2018-09-17T08:44:47.024Z,97810.70
2018-09-17T08:47:15.593Z,97815.05
2018-09-17T08:49:44.244Z,97803.77
2018-09-17T08:52:12.840Z,97808.04
2018-09-17T08:54:46.978Z,97803.41
2018-09-17T08:57:20.575Z,97803.02
2018-09-17T08:59:54.415Z,97810.16
2018-09-17T09:02:28.300Z,97808.95
2018-09-17T09:05:01.041Z,97802.78
2018-09-17T09:07:31.506Z,97811.06
2018-09-17T09:10:05.391Z,97801.02
2018-09-17T09:12:41.598Z,97801.45
2018-09-17T09:15:15.400Z,97798.67
2018-09-17T09:17:43.940Z,97797.20
2018-09-17T09:20:12.479Z,97790.66
2018-09-17T09:22:41.055Z,97792.61
2018-09-17T09:25:09.608Z,97780.82
2018-09-17T09:27:38.143Z,97786.11
2018-09-17T09:30:06.828Z,97776.28
2018-09-17T09:32:35.387Z,97780.36
2018-09-17T09:35:03.956Z,97775.45
2018-09-17T09:37:32.668Z,97779.88
2018-09-17T09:40:01.222Z,97776.24
2018-09-17T09:42:29.764Z,97772.45
2018-09-17T09:44:58.791Z,97773.13
2018-09-17T09:47:27.344Z,97775.88
2018-09-17T09:49:55.887Z,97772.56
2018-09-17T09:52:24.560Z,97768.08
2018-09-17T09:54:53.111Z,97763.00
2018-09-17T09:57:21.663Z,97770.70
2018-09-17T09:59:50.231Z,97763.84
2018-09-17T10:02:23.891Z,97769.00
2018-09-17T10:04:52.627Z,97766.21
2018-09-17T10:07:21.204Z,97761.50
2018-09-17T10:09:54.984Z,97753.91
2018-09-17T10:12:28.560Z,97759.41
2018-09-17T10:15:02.306Z,97761.36
2018-09-17T10:17:36.094Z,97761.42
2018-09-17T10:20:05.174Z,97754.24
2018-09-17T10:22:33.730Z,97762.81
2018-09-17T10:25:02.310Z,97752.64
2018-09-17T10:27:31.000Z,97753.66
2018-09-17T10:29:59.563Z,97753.89
2018-09-17T10:32:28.143Z,97749.49
2018-09-17T10:34:56.816Z,97748.98
2018-09-17T10:37:25.484Z,97748.36
2018-09-17T10:39:54.215Z,97744.72
2018-09-17T10:42:22.878Z,97742.27
2018-09-17T10:44:51.427Z,97739.62
2018-09-17T10:47:19.991Z,97738.98
2018-09-17T10:49:48.601Z,97739.73
2018-09-17T10:52:17.155Z,97740.05
2018-09-17T10:54:45.703Z,97733.12
2018-09-17T10:57:14.269Z,97733.24
2018-09-17T10:59:42.836Z,97729.58
2018-09-17T11:02:11.395Z,97726.19
2018-09-17T11:04:40.656Z,97722.14
2018-09-17T11:07:09.239Z,97723.81
2018-09-17T11:09:37.792Z,97720.25
2018-09-17T11:12:06.423Z,97715.81
2018-09-17T11:14:35.181Z,97714.73
2018-09-17T11:17:03.727Z,97710.76
2018-09-17T11:19:32.422Z,97710.52
2018-09-17T11:22:00.969Z,97709.88
2018-09-17T11:24:29.535Z,97708.19
2018-09-17T11:26:58.166Z,97710.38
2018-09-17T11:29:27.139Z,97710.05
2018-09-17T11:31:56.095Z,97707.38
2018-09-17T11:34:24.814Z,97701.45
2018-09-17T11:36:53.355Z,97699.00
2018-09-17T11:39:21.899Z,97695.58
2018-09-17T11:41:50.694Z,97699.67
2018-09-17T11:44:19.256Z,97692.16
2018-09-17T11:46:47.800Z,97689.69
2018-09-17T11:49:16.521Z,97689.38
2018-09-17T11:51:45.175Z,97680.97
2018-09-17T11:54:13.843Z,97677.97
2018-09-17T11:56:42.423Z,97680.84
2018-09-17T11:59:10.975Z,97674.77
2018-09-17T12:01:45.505Z,97673.59
2018-09-17T12:04:15.631Z,97659.64
2018-09-17T12:06:49.455Z,97661.89
2018-09-17T12:09:18.065Z,97663.03
2018-09-17T12:11:46.936Z,97663.30
2018-09-17T12:14:15.743Z,97659.55
2018-09-17T12:16:44.280Z,97656.13
2018-09-17T12:19:12.835Z,97652.59
2018-09-17T12:21:41.523Z,97651.95
2018-09-17T12:24:10.076Z,97652.63
2018-09-17T12:26:38.626Z,97648.65
2018-09-17T12:29:07.183Z,97639.91
2018-09-17T12:31:35.948Z,97643.80
2018-09-17T12:34:04.515Z,97638.27
2018-09-17T12:36:33.604Z,97630.87
2018-09-17T12:39:02.180Z,97625.70
2018-09-17T12:41:30.758Z,97621.97
2018-09-17T12:43:59.369Z,97627.66
2018-09-17T12:46:27.913Z,97622.95
2018-09-17T12:48:56.483Z,97619.03
2018-09-17T12:51:25.307Z,97609.20
2018-09-17T12:53:53.920Z,97607.95
2018-09-17T12:56:22.484Z,97603.55
2018-09-17T12:58:51.279Z,97607.14
2018-09-17T13:01:20.260Z,97592.44
2018-09-17T13:03:49.285Z,97593.76
2018-09-17T13:06:17.967Z,97589.51
2018-09-17T13:08:46.542Z,97588.03
2018-09-17T13:11:15.090Z,97588.20
2018-09-17T13:13:43.667Z,97578.25
2018-09-17T13:16:12.211Z,97582.51
2018-09-17T13:18:40.784Z,97580.38
2018-09-17T13:21:09.465Z,97582.01
2018-09-17T13:23:38.010Z,97581.83
2018-09-17T13:26:06.584Z,97574.52
2018-09-17T13:28:35.180Z,97573.70
2018-09-17T13:31:03.723Z,97576.66
2018-09-17T13:33:32.284Z,97573.38
2018-09-17T13:36:00.868Z,97569.42
2018-09-17T13:38:30.315Z,97568.61
2018-09-17T13:40:58.864Z,97565.99
2018-09-17T13:43:27.448Z,97559.98
2018-09-17T13:45:56.014Z,97559.98
2018-09-17T13:48:24.564Z,97557.70
2018-09-17T13:50:53.139Z,97550.86
2018-09-17T13:53:21.722Z,97552.33
2018-09-17T13:55:50.258Z,97551.03
2018-09-17T13:58:18.836Z,97547.29
2018-09-17T14:00:47.395Z,97540.60
2018-09-17T14:03:15.959Z,97544.02
2018-09-17T14:05:44.625Z,97534.23
2018-09-17T14:08:13.184Z,97534.58
2018-09-17T14:10:41.763Z,97526.41
2018-09-17T14:13:10.372Z,97526.25
2018-09-17T14:15:39.007Z,97518.92
2018-09-17T14:18:07.717Z,97519.09
2018-09-17T14:20:36.300Z,97509.47
2018-09-17T14:23:04.885Z,97509.32
2018-09-17T14:25:33.423Z,97512.41
2018-09-17T14:28:02.088Z,97511.77
2018-09-17T14:30:30.659Z,97515.33
2018-09-17T14:33:04.518Z,97510.78
2018-09-17T14:35:33.234Z,97514.84
2018-09-17T14:38:01.712Z,97509.89
2018-09-17T14:40:30.756Z,97507.75
2018-09-17T14:42:59.313Z,97505.25
2018-09-17T14:45:27.885Z,97497.25
2018-09-17T14:47:56.916Z,97505.55
2018-09-17T14:50:25.543Z,97499.88
2018-09-17T14:52:54.076Z,97498.91
2018-09-17T14:55:22.847Z,97497.44
2018-09-17T14:57:51.386Z,97489.98
2018-09-17T15:00:19.959Z,97486.39
2018-09-17T15:02:48.811Z,97487.20
2018-09-17T15:05:17.390Z,97482.97
2018-09-17T15:07:46.148Z,97486.58
2018-09-17T15:10:15.089Z,97485.77
2018-09-17T15:12:43.563Z,97487.02
2018-09-17T15:15:12.150Z,97482.14
2018-09-17T15:17:40.958Z,97490.24
2018-09-17T15:20:09.552Z,97488.04
2018-09-17T15:22:38.129Z,97475.80
2018-09-17T15:25:06.700Z,97478.54
2018-09-17T15:27:35.240Z,97477.13
2018-09-17T15:30:03.828Z,97479.38
2018-09-17T15:32:32.803Z,97474.66
2018-09-17T15:35:01.387Z,97474.83
2018-09-17T15:37:30.097Z,97469.63
2018-09-17T15:39:58.771Z,97464.34
2018-09-17T15:42:27.406Z,97466.14
2018-09-17T15:44:56.243Z,97463.34
2018-09-17T15:47:24.903Z,97467.25
2018-09-17T15:49:53.893Z,97457.94
2018-09-17T15:52:22.481Z,97458.45
2018-09-17T15:54:51.103Z,97457.27
2018-09-17T15:57:19.660Z,97454.47
2018-09-17T15:59:48.217Z,97449.24
2018-09-17T16:02:16.852Z,97443.73
2018-09-17T16:04:45.431Z,97442.26
2018-09-17T16:07:13.992Z,97444.34
2018-09-17T16:09:42.934Z,97441.95
2018-09-17T16:12:11.480Z,97445.17
2018-09-17T16:14:40.049Z,97445.80
2018-09-17T16:17:08.702Z,97442.00
2018-09-17T16:19:37.612Z,97444.12
2018-09-17T16:22:06.227Z,97446.86
2018-09-17T16:24:34.903Z,97448.16
2018-09-17T16:27:03.485Z,97449.16
2018-09-17T16:29:32.047Z,97445.73
2018-09-17T16:32:00.724Z,97438.24
2018-09-17T16:34:29.276Z,97435.47
2018-09-17T16:36:57.874Z,97444.57
2018-09-17T16:39:26.983Z,97439.33
2018-09-17T16:41:55.555Z,97436.73
2018-09-17T16:44:24.123Z,97438.11
2018-09-17T16:46:52.855Z,97435.50
2018-09-17T16:49:21.420Z,97434.03
2018-09-17T16:51:50.748Z,97433.37
2018-09-17T16:54:19.379Z,97435.05
2018-09-17T16:56:47.966Z,97432.91
2018-09-17T16:59:16.545Z,97430.76
2018-09-17T17:01:45.135Z,97430.58
2018-09-17T17:04:13.667Z,97426.51
2018-09-17T17:06:42.268Z,97427.29
2018-09-17T17:09:11.918Z,97425.46
2018-09-17T17:11:40.519Z,97426.55
2018-09-17T17:14:09.080Z,97432.20
2018-09-17T17:16:37.714Z,97424.16
2018-09-17T17:19:06.382Z,97430.13
2018-09-17T17:21:34.911Z,97427.00
2018-09-17T17:24:03.527Z,97425.30
2018-09-17T17:26:32.203Z,97424.70
2018-09-17T17:29:00.820Z,97433.62
2018-09-17T17:31:29.501Z,97427.98
2018-09-17T17:33:58.141Z,97427.46
2018-09-17T17:36:26.759Z,97428.81
2018-09-17T17:38:55.414Z,97426.53
2018-09-17T17:41:24.127Z,97427.52
2018-09-17T17:43:52.683Z,97429.86
2018-09-17T17:46:21.332Z,97436.55
2018-09-17T17:48:49.899Z,97440.95
2018-09-17T17:51:18.447Z,97440.04
2018-09-17T17:53:47.120Z,97445.13
2018-09-17T17:56:15.690Z,97443.23
2018-09-17T17:58:44.239Z,97440.97
2018-09-17T18:01:13.059Z,97441.41
2018-09-17T18:03:41.551Z,97449.84
2018-09-17T18:06:10.119Z,97448.01
2018-09-17T18:08:39.140Z,97449.38
2018-09-17T18:11:08.179Z,97452.25
2018-09-17T18:13:37.332Z,97455.00
2018-09-17T18:16:06.072Z,97461.48
2018-09-17T18:18:34.619Z,97454.25
2018-09-17T18:21:03.223Z,97455.47
2018-09-17T18:23:31.863Z,97452.33
2018-09-17T18:26:00.408Z,97450.96
2018-09-17T18:28:29.020Z,97446.92
2018-09-17T18:30:57.627Z,97448.09
2018-09-17T18:33:26.168Z,97443.33
2018-09-17T18:35:54.789Z,97446.12
2018-09-17T18:38:23.935Z,97446.32
2018-09-17T18:40:52.519Z,97443.45
2018-09-17T18:43:21.088Z,97451.20
2018-09-17T18:45:49.872Z,97450.59
2018-09-17T18:48:18.538Z,97457.24
2018-09-17T18:50:47.039Z,97461.30
2018-09-17T18:53:16.015Z,97463.03
2018-09-17T18:55:44.575Z,97459.94
2018-09-17T18:58:13.127Z,97457.62
2018-09-17T19:00:41.700Z,97461.36
2018-09-17T19:03:10.275Z,97460.64
2018-09-17T19:05:38.868Z,97459.08
2018-09-17T19:08:07.564Z,97464.44
2018-09-17T19:10:36.227Z,97462.83
2018-09-17T19:13:04.820Z,97461.30
2018-09-17T19:16:05.164Z,97459.80
2018-09-17T19:18:33.744Z,97455.42
2018-09-17T19:21:02.552Z,97455.44
2018-09-17T19:23:36.019Z,97457.16
2018-09-17T19:26:04.593Z,97458.09
2018-09-17T19:28:38.421Z,97445.64
2018-09-17T19:31:06.980Z,97446.61
2018-09-17T19:33:35.535Z,97447.44
2018-09-17T19:36:04.230Z,97448.48
2018-09-17T19:38:38.139Z,97450.81
2018-09-17T19:41:07.115Z,97451.20
2018-09-17T19:43:35.743Z,97461.89
2018-09-17T19:46:09.584Z,97455.25
2018-09-17T19:48:38.107Z,97454.70
2018-09-17T19:51:11.941Z,97451.79
2018-09-17T19:53:40.513Z,97453.47
2018-09-17T19:56:09.134Z,97456.30
2018-09-17T19:58:42.808Z,97454.87
2018-09-17T20:01:11.371Z,97456.88
2018-09-17T20:03:39.946Z,97458.80
2018-09-17T20:06:13.914Z,97458.13
2018-09-17T20:08:42.483Z,97456.25
2018-09-17T20:11:11.079Z,97462.12
2018-09-17T20:13:40.087Z,97460.02
2018-09-17T20:16:08.660Z,97459.33
2018-09-17T20:18:37.251Z,97456.27
2018-09-17T20:21:06.292Z,97455.22
2018-09-17T20:23:34.841Z,97452.66
2018-09-17T20:26:03.401Z,97449.04
2018-09-17T20:28:31.980Z,97447.16
2018-09-17T20:31:00.547Z,97450.91
2018-09-17T20:33:31.968Z,97449.05
2018-09-17T20:36:00.684Z,97455.36
2018-09-17T20:38:29.863Z,97448.55
2018-09-17T20:40:58.464Z,97444.92
2018-09-17T20:43:27.007Z,97443.41
2018-09-17T20:45:55.924Z,97444.11
2018-09-17T20:48:24.500Z,97442.23
2018-09-17T20:50:53.092Z,97442.36
2018-09-17T20:53:21.696Z,97437.77
2018-09-17T20:55:50.599Z,97439.64
2018-09-17T20:58:19.267Z,97435.64
2018-09-17T21:00:47.837Z,97438.67
2018-09-17T21:03:16.506Z,97433.48
2018-09-17T21:05:45.070Z,97435.81
2018-09-17T21:08:13.612Z,97429.94
2018-09-17T21:10:42.256Z,97432.86
2018-09-17T21:13:10.821Z,97435.05
2018-09-17T21:15:39.495Z,97437.63
2018-09-17T21:18:08.183Z,97434.21
2018-09-17T21:20:36.735Z,97426.70
2018-09-17T21:23:05.300Z,97421.91
2018-09-17T21:25:34.855Z,97425.25
2018-09-17T21:28:03.484Z,97423.97
2018-09-17T21:30:32.043Z,97423.03
2018-09-17T21:33:00.644Z,97420.53
2018-09-17T21:35:29.199Z,97417.38
2018-09-17T21:37:58.167Z,97421.16
2018-09-17T21:40:26.853Z,97423.28
2018-09-17T21:42:55.984Z,97414.72
2018-09-17T21:45:24.496Z,97419.98
2018-09-17T21:47:53.171Z,97416.25
2018-09-17T21:50:23.139Z,97413.53
2018-09-17T21:52:51.788Z,97418.52
2018-09-17T21:55:20.359Z,97414.05
2018-09-17T21:57:48.920Z,97414.75
2018-09-17T22:00:17.499Z,97413.23
2018-09-17T22:02:46.091Z,97413.25
2018-09-17T22:05:14.654Z,97417.81
2018-09-17T22:07:43.400Z,97418.61
2018-09-17T22:10:12.021Z,97418.42
2018-09-17T22:12:40.616Z,97414.31
2018-09-17T22:15:09.179Z,97416.86
2018-09-17T22:17:37.861Z,97412.97
2018-09-17T22:20:06.456Z,97413.59
2018-09-17T22:22:35.010Z,97409.55
2018-09-17T22:25:03.579Z,97405.09
2018-09-17T22:27:32.152Z,97409.56
2018-09-17T22:30:00.708Z,97409.13
2018-09-17T22:32:29.344Z,97405.89
2018-09-17T22:34:57.891Z,97400.30
2018-09-17T22:37:26.467Z,97398.20
2018-09-17T22:39:55.064Z,97398.73
2018-09-17T22:42:23.656Z,97395.21
2018-09-17T22:44:52.239Z,97397.92
2018-09-17T22:47:20.887Z,97395.71
2018-09-17T22:49:49.498Z,97394.58
2018-09-17T22:52:18.448Z,97387.09
2018-09-17T22:54:47.064Z,97390.39
2018-09-17T22:57:15.635Z,97396.54
2018-09-17T22:59:44.216Z,97391.16
2018-09-17T23:02:12.892Z,97393.98
2018-09-17T23:04:41.451Z,97388.22
2018-09-17T23:07:10.007Z,97391.47
2018-09-17T23:09:39.354Z,97396.30
2018-09-17T23:12:07.943Z,97389.80
2018-09-17T23:14:36.531Z,97391.39
2018-09-17T23:17:05.316Z,97394.04
2018-09-17T23:19:33.872Z,97395.63
2018-09-17T23:22:02.447Z,97389.61
2018-09-17T23:24:31.137Z,97392.38
2018-09-17T23:26:59.687Z,97392.29
2018-09-17T23:29:28.242Z,97389.44
2018-09-17T23:31:56.940Z,97390.38
2018-09-17T23:34:25.487Z,97388.20
2018-09-17T23:36:54.044Z,97389.56
2018-09-17T23:39:22.635Z,97395.32
2018-09-17T23:41:52.087Z,97388.46
2018-09-17T23:44:20.643Z,97390.65
2018-09-17T23:46:49.316Z,97387.11
2018-09-17T23:49:18.272Z,97387.00
2018-09-17T23:51:46.831Z,97378.34
2018-09-17T23:54:15.792Z,97380.00
2018-09-17T23:56:44.347Z,97383.67
2018-09-17T23:59:12.934Z,97382.84
